Terminal Aerodrome Forecast
Issued by NWS

Home | Current Version | Previous Version | Text Only | Print | Product List | Glossary On
Versions: 1 2 3 4 5 6 7 8 9 10 11 12
000
FTAK31 PAFA 210520
TAFAOT
TAF
PAOT 210520Z 2106/2206 32004KT P6SM BKN200
     FM210800 08006KT P6SM BKN200
     FM211600 10007KT P6SM SCT050 BKN100 BKN200=

USA.gov is the U.S. government's official web portal to all federal, state and local government web resources and services.